Time;durP1;ratioP1;P1;durP2;ratioP2;P2;SDS_P1;SDS_P2;PMS_P1;PMS_P2;Temp;Humidity;BMP_temperature;BMP_pressure;BME280_temperature;BME280_humidity;BME280_pressure;Samples;Min_cycle;Max_cycle;Signal;HPM_P1;HPM_P2
2022/01/07 00:00:20;;;;;;;13.80;4.57;;;3.60;99.90;;;;;;5049965;28;20044;-64
2022/01/07 00:02:48;;;;;;;14.00;5.78;;;3.50;99.90;;;;;;5060105;28;20037;-65
2022/01/07 00:05:14;;;;;;;19.55;6.28;;;3.60;99.90;;;;;;5061121;28;20084;-65
2022/01/07 00:07:41;;;;;;;15.00;5.82;;;3.60;99.90;;;;;;5045376;28;20131;-65
2022/01/07 00:10:09;;;;;;;17.52;6.28;;;3.50;99.90;;;;;;5060060;28;20487;-65
2022/01/07 00:12:35;;;;;;;10.68;4.45;;;3.60;99.90;;;;;;5040584;28;20079;-64
2022/01/07 00:15:02;;;;;;;16.77;5.25;;;3.60;99.90;;;;;;5074037;28;20094;-64
2022/01/07 00:17:27;;;;;;;13.00;6.13;;;3.50;99.90;;;;;;5054354;28;20063;-64
2022/01/07 00:19:53;;;;;;;8.18;4.78;;;3.60;99.90;;;;;;5054274;28;20139;-64
2022/01/07 00:22:19;;;;;;;11.35;5.18;;;3.50;99.90;;;;;;5053642;28;20053;-64
2022/01/07 00:24:45;;;;;;;10.95;5.45;;;3.50;99.90;;;;;;5053971;28;20048;-65
2022/01/07 00:27:10;;;;;;;14.10;5.93;;;3.40;99.90;;;;;;5054108;28;20064;-64
2022/01/07 00:29:36;;;;;;;16.45;6.40;;;3.40;99.90;;;;;;5053751;28;20076;-65
2022/01/07 00:32:02;;;;;;;11.85;6.13;;;3.40;99.90;;;;;;5036316;28;20408;-65
2022/01/07 00:34:27;;;;;;;14.70;6.90;;;3.30;99.90;;;;;;5053916;28;20084;-65
2022/01/07 00:36:53;;;;;;;12.25;5.38;;;3.30;99.90;;;;;;5053521;28;20064;-64
2022/01/07 00:39:18;;;;;;;14.10;5.88;;;3.20;99.90;;;;;;5053434;28;20049;-64
2022/01/07 00:41:44;;;;;;;14.10;4.80;;;3.20;99.90;;;;;;5054187;28;20503;-65
2022/01/07 00:44:09;;;;;;;13.10;5.78;;;3.10;99.90;;;;;;5053294;28;20045;-64
2022/01/07 00:46:35;;;;;;;9.90;5.22;;;3.10;99.90;;;;;;5036112;28;20036;-65
2022/01/07 00:49:00;;;;;;;15.30;7.10;;;3.00;99.90;;;;;;5053736;28;20041;-64
2022/01/07 00:51:26;;;;;;;13.30;5.38;;;3.10;99.90;;;;;;5053490;28;20376;-64
2022/01/07 00:53:52;;;;;;;14.35;6.75;;;2.90;99.90;;;;;;5035565;28;20045;-64
2022/01/07 00:56:17;;;;;;;13.18;6.60;;;2.90;99.90;;;;;;5053104;28;20045;-64
2022/01/07 00:58:43;;;;;;;14.70;5.13;;;2.90;99.90;;;;;;5053562;28;20068;-65
2022/01/07 01:01:08;;;;;;;19.80;6.93;;;2.90;99.90;;;;;;5035768;28;20044;-65
2022/01/07 01:03:34;;;;;;;17.95;7.20;;;2.60;99.90;;;;;;5053048;28;20120;-64
2022/01/07 01:06:00;;;;;;;10.35;6.32;;;2.80;99.90;;;;;;5035442;28;20041;-65
2022/01/07 01:08:26;;;;;;;13.25;6.20;;;2.80;99.90;;;;;;5053149;28;20124;-64
2022/01/07 01:10:55;;;;;;;11.25;5.82;;;2.80;99.90;;;;;;5053080;28;20080;-64
2022/01/07 01:13:21;;;;;;;13.95;5.97;;;2.80;99.90;;;;;;5034938;28;20053;-64
2022/01/07 01:15:47;;;;;;;11.82;6.55;;;2.80;99.90;;;;;;5053230;28;20407;-64
2022/01/07 01:18:13;;;;;;;13.93;6.15;;;2.80;99.90;;;;;;5051588;28;20060;-64
2022/01/07 01:20:39;;;;;;;13.82;5.35;;;2.70;99.90;;;;;;5034778;28;20053;-64
2022/01/07 01:23:05;;;;;;;8.55;5.30;;;2.70;99.90;;;;;;5034908;28;20041;-64
2022/01/07 01:25:31;;;;;;;8.50;5.53;;;2.70;99.90;;;;;;5052931;28;20048;-64
2022/01/07 01:27:57;;;;;;;13.55;6.75;;;2.70;99.90;;;;;;5053088;28;20049;-65
2022/01/07 01:30:27;;;;;;;10.88;6.35;;;2.70;99.90;;;;;;5052014;28;20132;-64
2022/01/07 01:32:53;;;;;;;11.50;6.63;;;2.70;99.90;;;;;;5042547;28;20475;-65
2022/01/07 01:35:19;;;;;;;11.23;6.43;;;2.70;99.90;;;;;;5067768;28;20075;-65
2022/01/07 01:37:47;;;;;;;10.40;7.80;;;2.60;99.90;;;;;;5044117;28;20059;-65
2022/01/07 01:40:14;;;;;;;19.27;6.38;;;2.60;99.90;;;;;;5072189;28;20227;-65
2022/01/07 01:42:40;;;;;;;12.88;6.00;;;2.60;99.90;;;;;;5072740;28;20602;-65
2022/01/07 01:45:07;;;;;;;11.27;7.40;;;2.60;99.90;;;;;;5072703;28;20045;-65
2022/01/07 01:47:33;;;;;;;15.20;7.10;;;2.50;99.90;;;;;;5072242;28;20053;-65
2022/01/07 01:49:59;;;;;;;15.80;7.53;;;2.50;99.90;;;;;;5072456;28;20399;-64
2022/01/07 01:52:24;;;;;;;20.38;9.57;;;2.70;99.90;;;;;;5053900;28;20036;-64
2022/01/07 01:54:50;;;;;;;19.42;7.30;;;2.50;99.90;;;;;;5054500;28;20048;-65
2022/01/07 01:57:16;;;;;;;14.05;6.82;;;2.50;99.90;;;;;;5072354;28;20051;-65
2022/01/07 01:59:41;;;;;;;18.40;8.50;;;2.50;99.90;;;;;;5054160;28;20056;-65
2022/01/07 02:02:07;;;;;;;16.75;9.00;;;2.50;99.90;;;;;;5072073;28;20044;-64
2022/01/07 02:04:33;;;;;;;19.45;7.80;;;2.50;99.90;;;;;;5072447;28;20048;-64
2022/01/07 02:06:59;;;;;;;11.52;7.68;;;2.50;99.90;;;;;;5070327;28;20037;-64
2022/01/07 02:09:35;;;;;;;15.20;9.35;;;2.50;99.90;;;;;;5046370;28;20059;-64
2022/01/07 02:12:05;;;;;;;16.55;8.23;;;2.50;99.90;;;;;;5072036;28;20056;-64
2022/01/07 02:14:30;;;;;;;13.52;6.88;;;2.50;99.90;;;;;;5059626;28;20458;-65
2022/01/07 02:17:09;;;;;;;12.98;7.00;;;2.50;99.90;;;;;;5052018;28;20081;-65
2022/01/07 02:19:37;;;;;;;13.95;7.35;;;2.50;99.90;;;;;;5052048;28;20487;-64
2022/01/07 02:22:03;;;;;;;16.77;8.13;;;2.60;99.90;;;;;;5034043;28;20049;-64
2022/01/07 02:24:29;;;;;;;12.40;9.10;;;2.50;99.90;;;;;;5051963;28;20090;-64
2022/01/07 02:26:55;;;;;;;12.57;8.02;;;2.50;99.90;;;;;;5034154;28;20093;-65
2022/01/07 02:29:21;;;;;;;15.05;8.55;;;2.50;99.90;;;;;;5033191;28;20098;-64
2022/01/07 02:31:48;;;;;;;16.90;8.80;;;2.70;99.90;;;;;;5051700;28;20056;-64
2022/01/07 02:34:13;;;;;;;13.43;8.27;;;2.50;99.90;;;;;;5051627;28;20103;-64
2022/01/07 02:36:39;;;;;;;17.20;8.85;;;2.50;99.90;;;;;;5033477;28;20369;-64
2022/01/07 02:39:05;;;;;;;16.30;9.85;;;2.50;99.90;;;;;;5051268;28;20071;-65
2022/01/07 02:41:31;;;;;;;16.02;9.10;;;2.50;99.90;;;;;;5033646;28;20099;-64
2022/01/07 02:43:57;;;;;;;17.60;8.18;;;2.50;99.90;;;;;;5057148;28;20090;-64
2022/01/07 02:46:23;;;;;;;16.10;9.75;;;2.50;99.90;;;;;;5056998;28;20064;-64
2022/01/07 02:48:48;;;;;;;12.82;8.85;;;2.50;99.90;;;;;;5037737;28;20056;-64
2022/01/07 02:51:14;;;;;;;9.98;8.13;;;2.50;99.90;;;;;;5051203;28;20045;-64
2022/01/07 02:53:39;;;;;;;18.65;9.60;;;2.50;99.90;;;;;;5051678;28;20128;-64
2022/01/07 02:56:05;;;;;;;17.95;10.85;;;2.50;99.90;;;;;;5032881;28;20045;-65
2022/01/07 02:58:31;;;;;;;12.57;8.13;;;2.40;99.90;;;;;;5033263;28;20136;-65
2022/01/07 03:00:57;;;;;;;11.60;8.65;;;2.40;99.90;;;;;;5051137;28;20052;-65
2022/01/07 03:03:23;;;;;;;15.52;9.95;;;2.50;99.90;;;;;;5032477;28;20051;-64
2022/01/07 03:05:49;;;;;;;11.18;8.65;;;2.50;99.90;;;;;;5051281;28;20063;-65
2022/01/07 03:08:15;;;;;;;9.30;7.38;;;2.40;99.90;;;;;;5051167;28;20036;-64
2022/01/07 03:10:40;;;;;;;21.52;10.27;;;2.40;99.90;;;;;;5050829;28;20063;-65
2022/01/07 03:13:06;;;;;;;16.48;9.65;;;2.40;99.90;;;;;;5033076;28;20040;-64
2022/01/07 03:15:34;;;;;;;16.13;9.90;;;2.40;99.90;;;;;;5050884;28;20510;-64
2022/01/07 03:18:01;;;;;;;15.55;9.82;;;2.40;99.90;;;;;;5033003;28;20072;-65
2022/01/07 03:20:27;;;;;;;13.05;9.07;;;2.50;99.90;;;;;;5032806;28;20080;-64
2022/01/07 03:22:52;;;;;;;9.05;7.53;;;2.40;99.90;;;;;;5051095;28;20044;-65
2022/01/07 03:25:19;;;;;;;15.07;8.00;;;2.40;99.90;;;;;;5032515;28;20064;-64
2022/01/07 03:27:45;;;;;;;14.50;9.23;;;2.50;99.90;;;;;;5050826;28;20087;-65
2022/01/07 03:30:14;;;;;;;15.95;9.77;;;2.50;99.90;;;;;;5050596;28;20506;-65
2022/01/07 03:32:39;;;;;;;15.38;9.85;;;2.50;99.90;;;;;;5057694;28;20062;-64
2022/01/07 03:35:09;;;;;;;13.00;9.10;;;2.50;99.90;;;;;;5053965;28;20048;-65
2022/01/07 03:37:35;;;;;;;21.27;11.18;;;2.40;99.90;;;;;;5060100;28;20048;-64
2022/01/07 03:40:02;;;;;;;13.73;10.75;;;2.50;99.90;;;;;;5050189;28;20049;-64
2022/01/07 03:42:27;;;;;;;12.13;8.52;;;2.50;99.90;;;;;;5047802;28;20049;-64
2022/01/07 03:44:53;;;;;;;23.05;10.10;;;2.50;99.90;;;;;;5070398;28;20106;-64
2022/01/07 03:47:18;;;;;;;13.50;9.93;;;2.50;99.90;;;;;;5070390;28;20045;-64
2022/01/07 03:49:44;;;;;;;12.70;9.98;;;2.50;99.90;;;;;;5053505;28;20041;-65
2022/01/07 03:52:09;;;;;;;14.63;9.73;;;2.60;99.90;;;;;;5032038;28;20080;-65
2022/01/07 03:54:35;;;;;;;16.27;10.27;;;2.60;99.90;;;;;;5032746;28;20049;-64
2022/01/07 03:57:01;;;;;;;15.43;9.98;;;2.60;99.90;;;;;;5050719;28;20087;-64
2022/01/07 03:59:27;;;;;;;15.63;10.75;;;2.60;99.90;;;;;;5032200;28;20053;-64
2022/01/07 04:01:52;;;;;;;16.80;11.07;;;2.80;99.90;;;;;;5050602;28;20045;-64
2022/01/07 04:04:18;;;;;;;14.85;10.10;;;2.60;99.90;;;;;;5032385;28;20384;-64
2022/01/07 04:06:44;;;;;;;15.65;11.43;;;2.60;99.90;;;;;;5050068;28;20143;-65
2022/01/07 04:09:09;;;;;;;14.40;9.25;;;2.60;99.90;;;;;;5032106;28;20044;-64
2022/01/07 04:11:35;;;;;;;15.38;9.30;;;2.60;99.90;;;;;;5050581;28;20052;-65
2022/01/07 04:14:00;;;;;;;15.75;10.25;;;2.60;99.90;;;;;;5050006;28;20120;-65
2022/01/07 04:16:26;;;;;;;16.13;10.15;;;2.70;99.90;;;;;;5049845;28;20503;-65
2022/01/07 04:18:51;;;;;;;12.48;9.93;;;2.60;99.90;;;;;;5050413;28;20052;-65
2022/01/07 04:21:17;;;;;;;16.95;10.65;;;2.60;99.90;;;;;;5049763;28;20052;-65
2022/01/07 04:23:42;;;;;;;16.48;11.68;;;2.60;99.90;;;;;;5032390;28;20052;-65
2022/01/07 04:26:08;;;;;;;9.73;8.18;;;2.60;99.90;;;;;;5032229;28;20481;-65
2022/01/07 04:28:34;;;;;;;16.13;10.52;;;2.70;99.90;;;;;;5049917;28;20045;-65
2022/01/07 04:30:59;;;;;;;12.52;10.68;;;2.70;99.90;;;;;;5032380;28;20041;-65
2022/01/07 04:33:27;;;;;;;12.85;9.93;;;2.70;99.90;;;;;;5050156;28;20048;-65
2022/01/07 04:35:54;;;;;;;13.07;10.27;;;2.60;99.90;;;;;;5049991;28;20688;-65
2022/01/07 04:38:21;;;;;;;11.88;9.63;;;2.70;99.90;;;;;;5049851;28;20041;-65
2022/01/07 04:40:46;;;;;;;14.95;10.77;;;2.70;99.90;;;;;;5050163;28;20052;-65
2022/01/07 04:43:12;;;;;;;12.98;10.80;;;2.80;99.90;;;;;;5031484;28;20049;-64
2022/01/07 04:45:38;;;;;;;15.20;10.75;;;2.80;99.90;;;;;;5050450;28;20048;-65
2022/01/07 04:48:04;;;;;;;11.02;9.65;;;2.80;99.90;;;;;;5050042;28;20052;-65
2022/01/07 04:50:30;;;;;;;12.02;10.55;;;2.80;99.90;;;;;;5032166;28;20095;-64
2022/01/07 04:52:55;;;;;;;15.57;11.70;;;2.80;99.90;;;;;;5050143;28;20048;-64
2022/01/07 04:55:30;;;;;;;16.15;11.50;;;2.80;99.90;;;;;;5052386;28;20051;-64
2022/01/07 04:57:56;;;;;;;17.35;12.68;;;2.90;99.90;;;;;;5053501;28;20491;-64
2022/01/07 05:00:23;;;;;;;14.55;10.75;;;2.80;99.90;;;;;;5053498;28;20033;-65
2022/01/07 05:02:49;;;;;;;13.57;10.35;;;2.90;99.90;;;;;;5053169;28;20489;-64
2022/01/07 05:05:15;;;;;;;15.93;11.05;;;2.90;99.90;;;;;;5035522;28;20129;-65
2022/01/07 05:07:40;;;;;;;15.98;10.32;;;2.80;99.90;;;;;;5035686;28;20056;-65
2022/01/07 05:10:10;;;;;;;16.27;10.60;;;2.90;99.90;;;;;;5052619;28;20037;-64
2022/01/07 05:12:36;;;;;;;17.60;11.88;;;2.90;99.90;;;;;;5053461;28;20052;-65
2022/01/07 05:15:03;;;;;;;14.15;10.80;;;2.80;99.90;;;;;;5035221;28;20484;-64
2022/01/07 05:17:28;;;;;;;12.82;10.80;;;2.90;99.90;;;;;;5034748;28;20055;-65
2022/01/07 05:19:54;;;;;;;17.00;12.25;;;2.90;99.90;;;;;;5053115;28;20156;-65
2022/01/07 05:22:20;;;;;;;15.45;11.43;;;2.80;99.90;;;;;;5040090;28;20115;-64
2022/01/07 05:24:45;;;;;;;12.52;10.77;;;2.90;99.90;;;;;;5054438;28;20498;-64
2022/01/07 05:27:11;;;;;;;16.65;9.60;;;2.90;99.90;;;;;;5059484;28;20045;-65
2022/01/07 05:29:36;;;;;;;11.80;10.18;;;2.90;99.90;;;;;;5053301;28;20049;-64
2022/01/07 05:32:04;;;;;;;14.70;10.63;;;2.90;99.90;;;;;;5055494;28;20616;-64
2022/01/07 05:34:30;;;;;;;14.18;10.93;;;3.00;99.90;;;;;;5054986;28;20542;-64
2022/01/07 05:36:56;;;;;;;15.15;11.27;;;2.90;99.90;;;;;;5070730;28;20052;-64
2022/01/07 05:39:22;;;;;;;14.50;9.57;;;3.00;99.90;;;;;;5046277;28;20074;-64
2022/01/07 05:41:47;;;;;;;12.35;9.90;;;3.00;99.90;;;;;;5035858;28;20052;-64
2022/01/07 05:44:13;;;;;;;13.82;10.70;;;3.00;99.90;;;;;;5046481;28;20048;-65
2022/01/07 05:46:38;;;;;;;14.10;9.77;;;3.00;99.90;;;;;;5072022;28;20063;-64
2022/01/07 05:49:04;;;;;;;15.32;10.60;;;3.00;99.90;;;;;;5056235;28;20148;-65
2022/01/07 05:51:30;;;;;;;14.88;10.20;;;3.00;99.90;;;;;;5052274;28;20048;-65
2022/01/07 05:53:55;;;;;;;15.27;10.95;;;3.00;99.90;;;;;;5052435;28;20146;-65
2022/01/07 05:56:21;;;;;;;17.60;10.93;;;3.10;99.90;;;;;;5034345;28;20136;-65
2022/01/07 05:58:46;;;;;;;14.80;9.65;;;3.10;99.90;;;;;;5060251;28;20044;-65
2022/01/07 06:01:12;;;;;;;14.20;10.70;;;3.10;99.90;;;;;;5054337;28;20062;-64
2022/01/07 06:03:39;;;;;;;23.90;12.40;;;3.10;99.90;;;;;;5046596;28;20061;-64
2022/01/07 06:06:04;;;;;;;18.95;11.68;;;3.10;99.90;;;;;;5033165;28;20068;-64
2022/01/07 06:08:30;;;;;;;14.82;10.90;;;3.10;99.90;;;;;;5052205;28;20049;-65
2022/01/07 06:10:56;;;;;;;13.55;9.88;;;3.10;99.90;;;;;;5048935;28;20469;-64
2022/01/07 06:13:21;;;;;;;13.10;10.75;;;3.10;99.90;;;;;;5071623;28;20047;-64
2022/01/07 06:15:47;;;;;;;14.75;12.38;;;3.10;99.90;;;;;;5053888;28;20056;-65
2022/01/07 06:18:13;;;;;;;12.73;10.07;;;3.10;99.90;;;;;;5054224;28;20540;-64
2022/01/07 06:20:38;;;;;;;16.42;11.95;;;3.10;99.90;;;;;;5071674;28;20050;-65
2022/01/07 06:23:04;;;;;;;16.70;9.93;;;3.10;99.90;;;;;;5071584;28;20056;-66
2022/01/07 06:25:29;;;;;;;15.25;10.23;;;3.10;99.90;;;;;;5054273;28;20459;-65
2022/01/07 06:27:55;;;;;;;14.82;10.85;;;3.10;99.90;;;;;;5053441;28;20048;-65
2022/01/07 06:30:21;;;;;;;16.08;11.07;;;3.10;99.90;;;;;;5053467;28;20072;-65
2022/01/07 06:32:46;;;;;;;15.20;11.20;;;3.10;99.90;;;;;;5048639;28;20399;-64
2022/01/07 06:35:12;;;;;;;14.60;12.50;;;3.10;99.90;;;;;;5052814;28;20118;-64
2022/01/07 06:37:38;;;;;;;14.88;11.20;;;3.10;99.90;;;;;;5058151;28;20059;-65
2022/01/07 06:40:06;;;;;;;12.93;10.95;;;3.20;99.90;;;;;;5071639;28;20086;-65
2022/01/07 06:42:32;;;;;;;17.50;13.27;;;3.20;99.90;;;;;;5053070;28;20080;-65
2022/01/07 06:44:58;;;;;;;13.85;11.35;;;3.20;99.90;;;;;;5053543;28;20196;-65
2022/01/07 06:47:24;;;;;;;12.98;9.82;;;3.20;99.90;;;;;;5071334;28;20452;-65
2022/01/07 06:49:50;;;;;;;17.17;11.80;;;3.20;99.90;;;;;;5070874;28;20080;-65
2022/01/07 06:52:15;;;;;;;14.77;12.13;;;3.20;99.90;;;;;;5053207;28;20088;-65
2022/01/07 06:54:41;;;;;;;11.40;10.20;;;3.20;99.90;;;;;;5071654;28;20438;-65
2022/01/07 06:57:07;;;;;;;22.83;13.82;;;3.20;99.90;;;;;;5055917;28;20445;-65
2022/01/07 06:59:32;;;;;;;22.70;11.85;;;3.30;99.90;;;;;;5033649;28;20103;-65
2022/01/07 07:01:58;;;;;;;13.43;11.82;;;4.10;99.90;;;;;;5070883;28;20105;-64
2022/01/07 07:04:23;;;;;;;22.38;13.18;;;3.20;99.90;;;;;;5070592;28;20402;-64
2022/01/07 07:06:49;;;;;;;14.15;11.30;;;3.30;99.90;;;;;;5046950;28;20056;-65
2022/01/07 07:09:17;;;;;;;15.77;11.30;;;3.30;99.90;;;;;;5033780;28;20052;-65
2022/01/07 07:11:43;;;;;;;16.45;11.95;;;3.30;99.90;;;;;;5063952;28;20052;-64
2022/01/07 07:14:10;;;;;;;13.50;10.48;;;3.30;99.90;;;;;;5059415;28;20041;-65
2022/01/07 07:16:36;;;;;;;18.70;13.07;;;3.30;99.90;;;;;;5048370;28;20049;-65
2022/01/07 07:19:01;;;;;;;19.33;14.02;;;3.40;99.90;;;;;;5049693;28;20408;-64
2022/01/07 07:21:27;;;;;;;17.17;13.63;;;3.40;99.90;;;;;;5051717;28;20475;-64
2022/01/07 07:23:52;;;;;;;18.50;13.55;;;3.50;99.90;;;;;;5059849;28;20037;-65
2022/01/07 07:26:18;;;;;;;16.67;11.98;;;3.50;99.90;;;;;;5059275;28;20056;-64
2022/01/07 07:28:43;;;;;;;18.23;12.43;;;3.50;99.90;;;;;;5067286;28;20058;-64
2022/01/07 07:31:13;;;;;;;16.48;12.80;;;3.60;99.90;;;;;;5050234;28;20387;-65
2022/01/07 07:38:52;;;;;;;24.65;13.73;;;3.60;99.90;;;;;;5050351;28;20057;-65
2022/01/07 07:41:18;;;;;;;18.83;15.75;;;3.60;99.90;;;;;;5041953;28;20112;-64
2022/01/07 07:43:47;;;;;;;17.55;12.13;;;3.60;99.90;;;;;;5050928;28;20426;-65
2022/01/07 07:46:13;;;;;;;15.50;12.88;;;3.60;99.90;;;;;;5054845;28;20056;-65
2022/01/07 07:48:42;;;;;;;19.42;14.10;;;3.50;99.90;;;;;;5055511;28;20523;-64
2022/01/07 07:51:07;;;;;;;20.42;12.90;;;3.50;99.90;;;;;;5034036;28;20048;-64
2022/01/07 07:53:33;;;;;;;21.05;17.23;;;3.50;99.90;;;;;;5052683;28;20060;-64
2022/01/07 07:55:58;;;;;;;17.17;13.50;;;3.50;99.90;;;;;;5070792;28;20036;-64
2022/01/07 07:58:27;;;;;;;24.25;15.20;;;3.50;99.90;;;;;;5060612;28;20653;-64
2022/01/07 08:00:53;;;;;;;21.13;16.55;;;3.60;99.90;;;;;;5061334;28;20048;-65
2022/01/07 08:03:21;;;;;;;24.83;16.73;;;3.60;99.90;;;;;;5048152;28;20441;-65
2022/01/07 08:05:47;;;;;;;30.63;17.23;;;3.60;99.90;;;;;;5033022;28;20076;-65
2022/01/07 08:08:12;;;;;;;24.27;18.33;;;3.70;99.90;;;;;;5032449;28;20091;-64
2022/01/07 08:10:45;;;;;;;32.75;16.15;;;3.70;99.90;;;;;;5044416;28;20156;-65
2022/01/07 08:18:23;;;;;;;23.58;14.00;;;3.70;99.90;;;;;;5043350;28;20436;-69
2022/01/07 08:20:50;;;;;;;27.80;17.50;;;3.70;99.90;;;;;;5057212;28;20045;-64
2022/01/07 08:23:16;;;;;;;25.33;17.98;;;3.70;99.90;;;;;;5038162;28;20458;-71
2022/01/07 08:25:42;;;;;;;21.75;14.75;;;3.80;99.90;;;;;;5039931;28;20123;-73
2022/01/07 08:28:09;;;;;;;33.78;16.70;;;3.70;99.90;;;;;;5052134;28;20043;-65
2022/01/07 08:30:58;;;;;;;25.65;17.02;;;3.70;99.90;;;;;;5036333;28;20043;-68
2022/01/07 08:36:07;;;;;;;31.05;17.88;;;3.70;99.90;;;;;;5043893;28;20128;-69
2022/01/07 08:38:33;;;;;;;26.77;15.25;;;3.70;99.90;;;;;;5041923;28;20081;-68
2022/01/07 08:40:59;;;;;;;27.77;15.88;;;3.80;99.90;;;;;;5035677;28;20463;-68
2022/01/07 08:43:24;;;;;;;28.42;17.50;;;3.70;99.90;;;;;;5035486;28;20570;-68
2022/01/07 08:45:50;;;;;;;25.42;16.10;;;3.80;99.90;;;;;;5047141;28;20128;-68
2022/01/07 08:48:15;;;;;;;28.80;16.88;;;3.80;99.90;;;;;;5052005;28;20087;-68
2022/01/07 08:50:41;;;;;;;26.80;16.10;;;3.80;99.90;;;;;;5034682;28;20044;-68
2022/01/07 08:53:07;;;;;;;24.05;15.93;;;3.90;99.90;;;;;;5055365;28;20048;-68
2022/01/07 08:55:33;;;;;;;32.80;15.23;;;3.90;99.90;;;;;;5035050;28;20079;-67
2022/01/07 08:57:58;;;;;;;21.77;15.15;;;3.90;99.90;;;;;;5052725;28;20057;-67
2022/01/07 09:00:24;;;;;;;23.30;15.73;;;3.90;99.90;;;;;;5036718;28;20049;-68
2022/01/07 09:02:50;;;;;;;27.80;15.02;;;4.00;99.90;;;;;;5072161;28;20059;-69
2022/01/07 09:05:18;;;;;;;21.17;14.07;;;4.00;99.90;;;;;;5054315;28;20457;-68
2022/01/07 09:07:44;;;;;;;21.70;13.45;;;4.00;99.90;;;;;;5054812;28;20473;-68
2022/01/07 09:10:09;;;;;;;26.73;16.42;;;4.00;99.90;;;;;;5053730;28;20060;-68
2022/01/07 09:12:36;;;;;;;24.00;15.32;;;4.00;99.90;;;;;;5054767;28;20052;-67
2022/01/07 09:15:02;;;;;;;23.42;14.38;;;4.10;99.90;;;;;;5067648;28;20044;-67
2022/01/07 09:17:30;;;;;;;25.75;17.33;;;4.10;99.90;;;;;;5070445;28;20148;-67
2022/01/07 09:19:55;;;;;;;26.23;16.23;;;4.20;99.90;;;;;;5065384;28;20059;-67
2022/01/07 09:22:21;;;;;;;22.15;15.52;;;4.20;99.90;;;;;;5053981;28;20048;-67
2022/01/07 09:24:47;;;;;;;24.20;14.60;;;4.30;99.90;;;;;;5068453;28;20083;-67
2022/01/07 09:27:12;;;;;;;26.20;17.45;;;4.30;99.90;;;;;;5040685;28;20052;-66
2022/01/07 09:29:38;;;;;;;20.63;15.23;;;4.30;99.90;;;;;;5064269;28;20080;-68
2022/01/07 09:32:04;;;;;;;24.30;16.40;;;4.40;99.90;;;;;;5068437;28;20044;-67
2022/01/07 09:34:29;;;;;;;29.00;17.17;;;4.40;99.90;;;;;;5064208;28;20592;-66
2022/01/07 09:36:56;;;;;;;25.83;15.93;;;4.50;99.90;;;;;;5070834;28;20119;-65
2022/01/07 09:39:21;;;;;;;30.50;18.52;;;4.50;99.90;;;;;;5062209;28;20079;-65
2022/01/07 09:41:47;;;;;;;27.40;17.08;;;4.50;99.90;;;;;;5039662;28;20072;-65
2022/01/07 09:44:13;;;;;;;21.02;15.02;;;4.60;99.90;;;;;;5052040;28;20124;-64
2022/01/07 09:46:43;;;;;;;21.77;14.18;;;4.60;99.90;;;;;;5050003;28;20045;-64
2022/01/07 09:49:09;;;;;;;23.83;14.60;;;4.60;99.90;;;;;;5033518;28;20041;-65
2022/01/07 09:51:40;;;;;;;26.67;15.88;;;4.60;99.90;;;;;;5052451;28;20048;-65
2022/01/07 09:54:07;;;;;;;25.25;14.95;;;4.50;99.90;;;;;;5034648;28;20124;-64
2022/01/07 09:56:33;;;;;;;20.73;14.38;;;4.50;99.90;;;;;;5035009;28;20399;-65
2022/01/07 09:59:00;;;;;;;29.45;14.60;;;4.40;99.90;;;;;;5034214;28;20045;-64
2022/01/07 10:01:26;;;;;;;17.83;13.40;;;4.40;99.90;;;;;;5034337;28;20124;-64
2022/01/07 10:03:52;;;;;;;26.13;14.60;;;4.30;99.90;;;;;;5050436;28;20513;-64
2022/01/07 10:06:21;;;;;;;22.17;13.55;;;4.30;99.90;;;;;;5071623;28;20079;-65
2022/01/07 10:09:07;;;;;;;17.17;11.63;;;4.20;99.90;;;;;;5045123;28;20060;-65
2022/01/07 10:11:34;;;;;;;14.40;11.27;;;4.30;99.90;;;;;;5034826;28;20091;-65
2022/01/07 10:14:18;;;;;;;15.02;9.30;;;4.30;99.90;;;;;;5051610;28;20399;-64
2022/01/07 10:16:52;;;;;;;15.45;8.35;;;4.30;99.90;;;;;;5052164;28;20053;-64
2022/01/07 10:19:31;;;;;;;13.23;9.10;;;4.40;99.90;;;;;;5051441;28;20041;-64
2022/01/07 10:21:58;;;;;;;11.68;8.13;;;4.40;99.90;;;;;;5052138;28;20045;-64
2022/01/07 10:24:24;;;;;;;8.43;6.95;;;4.40;99.90;;;;;;5051815;28;20055;-65
2022/01/07 10:27:12;;;;;;;10.02;7.45;;;4.40;99.90;;;;;;5051945;28;20466;-65
2022/01/07 10:29:42;;;;;;;12.07;6.78;;;4.50;99.90;;;;;;5053393;28;20086;-65
2022/01/07 10:32:25;;;;;;;9.45;5.53;;;4.50;99.90;;;;;;5053182;28;20051;-66
2022/01/07 10:35:09;;;;;;;;;;;4.50;99.90;;;;;;5071063;28;20383;-65
2022/01/07 10:38:01;;;;;;;6.82;4.30;;;4.50;99.90;;;;;;5046844;28;20438;-65
2022/01/07 10:40:39;;;;;;;5.70;4.43;;;4.50;99.90;;;;;;5028492;28;20052;-66
2022/01/07 10:43:14;;;;;;;5.53;3.75;;;4.40;99.90;;;;;;5051809;28;20060;-65
2022/01/07 10:45:49;;;;;;;9.93;3.25;;;4.40;99.90;;;;;;5054377;28;20044;-64
2022/01/07 10:48:16;;;;;;;3.70;3.00;;;4.40;99.90;;;;;;5053752;28;20067;-64
2022/01/07 10:50:50;;;;;;;3.58;2.97;;;4.40;99.90;;;;;;5054417;28;20048;-64
2022/01/07 10:53:24;;;;;;;4.75;2.78;;;4.50;99.90;;;;;;5052886;28;20048;-64
2022/01/07 10:56:06;;;;;;;7.25;3.20;;;4.60;99.90;;;;;;5068948;28;20056;-64
2022/01/07 10:58:48;;;;;;;8.43;2.93;;;4.70;99.90;;;;;;5053597;28;20368;-64
2022/01/07 11:01:26;;;;;;;6.10;2.95;;;4.70;99.90;;;;;;5053458;28;20307;-64
2022/01/07 11:03:53;;;;;;;6.95;3.40;;;4.70;99.90;;;;;;5071993;28;20044;-64
2022/01/07 11:06:20;;;;;;;5.90;2.45;;;4.60;99.90;;;;;;5053501;28;20074;-64
2022/01/07 11:08:49;;;;;;;6.82;2.28;;;4.60;99.90;;;;;;5053583;28;20049;-64
2022/01/07 11:11:15;;;;;;;4.68;2.17;;;4.50;99.90;;;;;;5071123;28;20506;-64
2022/01/07 11:13:42;;;;;;;6.50;2.20;;;4.40;99.90;;;;;;5054156;28;20040;-64
2022/01/07 11:16:08;;;;;;;10.57;2.97;;;4.50;99.90;;;;;;5070700;28;20090;-65
2022/01/07 11:18:37;;;;;;;6.45;2.58;;;4.50;99.90;;;;;;5071648;28;20048;-64
2022/01/07 11:21:04;;;;;;;7.88;2.70;;;4.60;99.90;;;;;;5054097;28;20117;-64
2022/01/07 11:23:31;;;;;;;7.25;2.80;;;4.70;99.90;;;;;;5070976;28;20478;-64
2022/01/07 11:26:04;;;;;;;7.93;3.67;;;4.80;99.90;;;;;;5067108;28;20486;-64
2022/01/07 11:28:31;;;;;;;6.38;3.20;;;4.90;99.90;;;;;;5050868;28;20400;-64
2022/01/07 11:31:14;;;;;;;8.38;3.80;;;4.90;99.90;;;;;;5050716;28;20033;-64
2022/01/07 11:33:41;;;;;;;11.23;4.20;;;5.00;99.90;;;;;;5047464;28;20059;-64
2022/01/07 11:36:12;;;;;;;6.75;4.00;;;5.10;99.90;;;;;;5032958;28;20132;-65
2022/01/07 11:38:40;;;;;;;15.68;5.65;;;5.20;99.90;;;;;;5033395;28;20499;-64
2022/01/07 11:41:09;;;;;;;10.27;4.88;;;5.20;99.90;;;;;;5033256;28;20055;-65
2022/01/07 11:43:39;;;;;;;7.88;5.40;;;5.20;99.90;;;;;;5033017;28;20144;-64
2022/01/07 11:46:29;;;;;;;11.40;5.03;;;5.30;99.90;;;;;;5033189;28;20549;-65
2022/01/07 11:48:56;;;;;;;17.50;5.60;;;5.40;99.90;;;;;;5033747;28;20068;-65
2022/01/07 11:51:22;;;;;;;8.55;5.25;;;5.40;99.90;;;;;;5050439;28;20044;-65
2022/01/07 11:53:48;;;;;;;8.52;6.30;;;5.50;99.90;;;;;;5056636;28;20044;-64
2022/01/07 11:56:15;;;;;;;14.27;5.65;;;5.50;99.90;;;;;;5071276;28;20453;-64
2022/01/07 11:58:55;;;;;;;9.88;5.97;;;5.50;99.90;;;;;;5070744;28;20084;-65
2022/01/07 12:01:31;;;;;;;11.20;6.25;;;5.60;99.90;;;;;;5053229;28;20053;-64
2022/01/07 12:03:59;;;;;;;14.40;6.40;;;5.70;99.90;;;;;;5074591;28;20094;-64
2022/01/07 12:06:28;;;;;;;9.88;6.57;;;5.80;99.90;;;;;;5056800;28;20094;-64
2022/01/07 12:09:05;;;;;;;15.88;6.55;;;5.90;99.90;;;;;;5075268;28;20052;-64
2022/01/07 12:12:05;;;;;;;11.85;7.10;;;5.90;99.90;;;;;;5056792;28;20131;-64
2022/01/07 12:14:52;;;;;;;14.73;7.15;;;5.80;99.90;;;;;;5052816;28;20059;-65
2022/01/07 12:17:19;;;;;;;16.88;8.10;;;5.70;99.90;;;;;;5037748;28;20060;-64
2022/01/07 12:19:48;;;;;;;17.63;7.55;;;5.60;99.90;;;;;;5055068;28;20048;-64
2022/01/07 12:22:16;;;;;;;12.82;7.03;;;5.60;99.90;;;;;;5055614;28;20056;-64
2022/01/07 12:24:43;;;;;;;15.85;8.63;;;5.60;99.90;;;;;;5044998;28;20115;-64
2022/01/07 12:27:09;;;;;;;13.30;7.47;;;5.60;99.90;;;;;;5056617;28;20048;-64
2022/01/07 12:29:38;;;;;;;12.48;6.18;;;5.60;99.90;;;;;;5075595;28;20040;-64
2022/01/07 12:32:05;;;;;;;15.32;7.40;;;5.60;99.90;;;;;;5057610;28;20036;-64
2022/01/07 12:34:40;;;;;;;11.93;6.53;;;5.80;99.90;;;;;;5056304;28;20053;-64
2022/01/07 12:37:08;;;;;;;11.20;6.15;;;5.90;99.90;;;;;;5073924;28;20037;-64
2022/01/07 12:39:44;;;;;;;12.32;6.25;;;5.90;99.90;;;;;;5050373;28;20136;-65
2022/01/07 12:42:10;;;;;;;13.82;6.10;;;5.90;99.90;;;;;;5052982;28;20063;-64
2022/01/07 12:44:38;;;;;;;12.20;6.15;;;6.00;99.90;;;;;;5051828;28;20467;-65
2022/01/07 12:47:05;;;;;;;8.23;5.22;;;6.10;99.90;;;;;;5046505;28;20121;-65
2022/01/07 12:49:42;;;;;;;15.73;5.30;;;6.10;99.90;;;;;;5062721;28;20083;-65
2022/01/07 12:52:24;;;;;;;7.95;3.72;;;6.00;99.90;;;;;;5054223;28;20139;-65
2022/01/07 12:55:07;;;;;;;8.35;3.33;;;5.90;99.90;;;;;;5058981;28;20523;-65
2022/01/07 12:57:48;;;;;;;8.57;3.10;;;5.90;99.90;;;;;;5070592;28;20040;-65